createdAt,value
2023-04-17T00:02:01.757Z,11.00
2023-04-17T00:04:29.184Z,10.90
2023-04-17T00:06:56.920Z,10.90
2023-04-17T00:09:24.007Z,10.80
2023-04-17T00:11:51.437Z,10.80
2023-04-17T00:14:18.597Z,10.80
2023-04-17T00:16:45.984Z,10.80
2023-04-17T00:19:15.573Z,10.80
2023-04-17T00:21:42.765Z,10.80
2023-04-17T00:24:09.874Z,10.80
2023-04-17T00:26:37.196Z,10.80
2023-04-17T00:29:04.477Z,10.80
2023-04-17T00:31:31.813Z,10.80
2023-04-17T00:34:01.513Z,10.80
2023-04-17T00:36:31.908Z,10.80
2023-04-17T00:38:59.466Z,10.80
2023-04-17T00:41:26.750Z,10.70
2023-04-17T00:43:54.119Z,10.70
2023-04-17T00:46:21.401Z,10.70
2023-04-17T00:48:49.567Z,10.70
2023-04-17T00:51:17.042Z,10.70
2023-04-17T00:53:44.540Z,10.60
2023-04-17T00:56:12.029Z,10.60
2023-04-17T00:58:40.494Z,10.50
2023-04-17T01:01:08.013Z,10.50
2023-04-17T01:03:35.670Z,10.50
2023-04-17T01:06:03.908Z,10.50
2023-04-17T01:08:42.418Z,10.50
2023-04-17T01:11:10.986Z,10.50
2023-04-17T01:13:41.242Z,10.50
2023-04-17T01:16:08.622Z,10.50
2023-04-17T01:18:35.788Z,10.50
2023-04-17T01:21:03.406Z,10.50
2023-04-17T01:23:42.868Z,10.50
2023-04-17T01:26:11.820Z,10.50
2023-04-17T01:28:39.467Z,10.50
2023-04-17T01:31:06.825Z,10.50
2023-04-17T01:33:34.099Z,10.40
2023-04-17T01:36:01.517Z,10.40
2023-04-17T01:38:28.726Z,10.30
2023-04-17T01:40:56.364Z,10.30
2023-04-17T01:43:23.487Z,10.30
2023-04-17T01:45:50.751Z,10.30
2023-04-17T01:48:18.026Z,10.30
2023-04-17T01:50:45.255Z,10.30
2023-04-17T01:53:12.534Z,10.30
2023-04-17T01:55:39.737Z,10.30
2023-04-17T01:58:06.910Z,10.20
2023-04-17T02:00:34.341Z,10.30
2023-04-17T02:03:01.619Z,10.20
2023-04-17T02:05:28.899Z,10.30
2023-04-17T02:07:56.146Z,10.20
2023-04-17T02:10:23.455Z,10.20
2023-04-17T02:12:50.564Z,10.20
2023-04-17T02:15:18.038Z,10.20
2023-04-17T02:17:45.340Z,10.20
2023-04-17T02:20:12.864Z,10.20
2023-04-17T02:22:40.097Z,10.20
2023-04-17T02:25:07.641Z,10.20
2023-04-17T02:27:34.797Z,10.10
2023-04-17T02:30:02.281Z,10.00
2023-04-17T02:32:29.429Z,9.90
2023-04-17T02:34:56.769Z,9.90
2023-04-17T02:37:24.316Z,9.80
2023-04-17T02:39:54.524Z,9.90
2023-04-17T02:42:21.651Z,9.80
2023-04-17T02:44:48.936Z,9.80
2023-04-17T02:47:16.176Z,9.80
2023-04-17T02:49:43.390Z,9.80
2023-04-17T02:52:11.173Z,9.80
2023-04-17T02:54:38.489Z,9.70
2023-04-17T02:57:06.998Z,9.70
2023-04-17T02:59:34.501Z,9.70
2023-04-17T03:02:04.011Z,9.60
2023-04-17T03:04:34.557Z,9.60
2023-04-17T03:07:01.854Z,9.70
2023-04-17T03:09:29.123Z,9.70
2023-04-17T03:11:56.754Z,9.70
2023-04-17T03:14:24.072Z,9.70
2023-04-17T03:16:51.327Z,9.60
2023-04-17T03:19:18.812Z,9.60
2023-04-17T03:21:46.294Z,9.40
2023-04-17T03:24:13.461Z,9.40
2023-04-17T03:26:40.684Z,9.40
2023-04-17T03:29:15.122Z,9.40
2023-04-17T03:31:42.519Z,9.40
2023-04-17T03:34:09.763Z,9.50
2023-04-17T03:36:37.620Z,9.50
2023-04-17T03:39:05.287Z,9.50
2023-04-17T03:41:32.713Z,9.50
2023-04-17T03:44:00.837Z,9.50
2023-04-17T03:46:29.540Z,9.50
2023-04-17T03:48:56.765Z,9.50
2023-04-17T03:51:24.524Z,9.40
2023-04-17T03:53:54.080Z,9.40
2023-04-17T03:56:21.925Z,9.40
2023-04-17T03:58:49.232Z,9.50
2023-04-17T04:01:18.569Z,9.50
2023-04-17T04:04:02.645Z,9.40
2023-04-17T04:06:30.566Z,9.40
2023-04-17T04:08:58.680Z,9.30
2023-04-17T04:11:26.086Z,9.40
2023-04-17T04:13:53.299Z,9.30
2023-04-17T04:16:20.907Z,9.30
2023-04-17T04:18:49.962Z,9.30
2023-04-17T04:21:18.396Z,9.20
2023-04-17T04:23:45.675Z,9.20
2023-04-17T04:26:17.176Z,9.10
2023-04-17T04:28:50.625Z,9.10
2023-04-17T04:31:29.889Z,9.10
2023-04-17T04:33:59.968Z,9.10
2023-04-17T04:36:30.250Z,9.20
2023-04-17T04:38:59.952Z,9.20
2023-04-17T04:41:34.190Z,9.20
2023-04-17T04:44:04.408Z,9.20
2023-04-17T04:46:32.832Z,9.20
2023-04-17T04:49:00.961Z,9.20
2023-04-17T04:51:28.389Z,9.20
2023-04-17T04:53:56.147Z,9.20
2023-04-17T04:56:24.162Z,9.30
2023-04-17T04:58:51.553Z,9.30
2023-04-17T05:01:21.029Z,9.20
2023-04-17T05:03:49.943Z,9.10
2023-04-17T05:06:23.388Z,8.90
2023-04-17T05:08:56.383Z,8.90
2023-04-17T05:11:25.532Z,8.90
2023-04-17T05:13:52.891Z,8.80
2023-04-17T05:16:25.542Z,8.70
2023-04-17T05:18:53.306Z,8.60
2023-04-17T05:21:31.245Z,8.60
2023-04-17T05:24:00.477Z,8.50
2023-04-17T05:26:27.973Z,8.40
2023-04-17T05:28:55.443Z,8.40
2023-04-17T05:31:27.287Z,8.20
2023-04-17T05:33:55.961Z,8.20
2023-04-17T05:36:23.224Z,8.20
2023-04-17T05:38:52.774Z,8.10
2023-04-17T05:41:20.076Z,8.20
2023-04-17T05:43:47.292Z,8.20
2023-04-17T05:46:14.629Z,8.20
2023-04-17T05:48:44.119Z,8.20
2023-04-17T05:51:11.895Z,8.20
2023-04-17T05:53:39.376Z,8.30
2023-04-17T05:56:06.670Z,8.40
2023-04-17T05:58:36.228Z,8.40
2023-04-17T06:01:06.508Z,8.50
2023-04-17T06:03:35.248Z,8.50
2023-04-17T06:06:10.133Z,8.60
2023-04-17T06:08:37.282Z,8.70
2023-04-17T06:11:05.626Z,8.80
2023-04-17T06:13:33.944Z,8.80
2023-04-17T06:16:01.303Z,8.90
2023-04-17T06:18:28.694Z,8.90
2023-04-17T06:20:56.209Z,9.00
2023-04-17T06:23:23.513Z,9.10
2023-04-17T06:25:50.689Z,9.20
2023-04-17T06:28:19.005Z,9.40
2023-04-17T06:30:47.323Z,9.60
2023-04-17T06:33:14.745Z,9.80
2023-04-17T06:35:42.896Z,9.90
2023-04-17T06:38:30.052Z,10.10
2023-04-17T06:40:57.969Z,10.20
2023-04-17T06:43:25.215Z,10.30
2023-04-17T06:45:53.924Z,10.40
2023-04-17T06:48:21.184Z,10.50
2023-04-17T06:50:49.268Z,10.60
2023-04-17T06:53:16.455Z,10.70
2023-04-17T06:55:43.899Z,10.80
2023-04-17T06:58:11.183Z,10.70
2023-04-17T07:00:38.487Z,10.80
2023-04-17T07:03:06.288Z,11.00
2023-04-17T07:05:33.691Z,11.20
2023-04-17T07:08:00.824Z,11.30
2023-04-17T07:10:28.210Z,11.40
2023-04-17T07:12:55.351Z,11.50
2023-04-17T07:15:22.684Z,11.60
2023-04-17T07:17:50.122Z,11.60
2023-04-17T07:20:17.418Z,11.80
2023-04-17T07:22:44.539Z,11.90
2023-04-17T07:25:11.860Z,11.90
2023-04-17T07:27:39.534Z,12.20
2023-04-17T07:30:08.631Z,12.50
2023-04-17T07:32:36.498Z,12.70
2023-04-17T07:35:04.632Z,12.80
2023-04-17T07:37:31.838Z,13.10
2023-04-17T07:39:59.163Z,13.30
2023-04-17T07:42:26.285Z,13.60
2023-04-17T07:44:53.439Z,13.80
2023-04-17T07:47:20.882Z,14.10
2023-04-17T07:49:49.359Z,14.20
2023-04-17T07:52:18.032Z,14.40
2023-04-17T07:54:45.742Z,14.60
2023-04-17T07:57:14.364Z,14.90
2023-04-17T07:59:41.926Z,15.00
2023-04-17T08:02:09.571Z,15.20
2023-04-17T08:04:40.403Z,15.20
2023-04-17T08:07:10.757Z,15.40
2023-04-17T08:09:38.579Z,15.60
2023-04-17T08:12:06.368Z,15.80
2023-04-17T08:14:33.701Z,16.00
2023-04-17T08:17:01.063Z,16.20
2023-04-17T08:19:29.943Z,16.20
2023-04-17T08:22:01.914Z,16.20
2023-04-17T08:24:29.163Z,16.30
2023-04-17T08:26:56.860Z,16.30
2023-04-17T08:29:24.952Z,16.40
2023-04-17T08:32:00.220Z,16.70
2023-04-17T08:34:38.900Z,16.90
2023-04-17T08:37:06.252Z,17.00
2023-04-17T08:39:33.484Z,17.00
2023-04-17T08:42:03.963Z,17.10
2023-04-17T08:44:31.244Z,17.20
2023-04-17T08:46:58.940Z,17.30
2023-04-17T08:49:29.465Z,17.40
2023-04-17T08:51:56.765Z,17.60
2023-04-17T08:54:24.058Z,17.70
2023-04-17T08:56:51.246Z,18.00
2023-04-17T08:59:18.461Z,18.20
2023-04-17T09:02:02.265Z,18.20
2023-04-17T09:04:45.799Z,18.20
2023-04-17T09:07:15.924Z,18.30
2023-04-17T09:09:46.335Z,18.30
2023-04-17T09:12:14.043Z,18.40
2023-04-17T09:14:41.500Z,18.60
2023-04-17T09:17:08.854Z,18.70
2023-04-17T09:19:36.550Z,18.80
2023-04-17T09:22:06.843Z,18.80
2023-04-17T09:24:35.392Z,18.90
2023-04-17T09:27:05.645Z,18.90
2023-04-17T09:29:32.768Z,18.70
2023-04-17T09:32:16.544Z,18.60
2023-04-17T09:34:43.634Z,18.80
2023-04-17T09:37:10.769Z,18.70
2023-04-17T09:39:38.035Z,18.90
2023-04-17T09:42:06.405Z,19.00
2023-04-17T09:44:37.123Z,19.20
2023-04-17T09:47:05.429Z,19.30
2023-04-17T09:49:42.774Z,19.40
2023-04-17T09:52:12.314Z,19.30
2023-04-17T09:54:40.987Z,19.40
2023-04-17T09:57:09.779Z,19.50
2023-04-17T09:59:41.756Z,19.60
2023-04-17T10:02:11.794Z,19.70
2023-04-17T10:04:42.396Z,19.70
2023-04-17T10:07:11.054Z,19.50
2023-04-17T10:09:41.733Z,19.40
2023-04-17T10:12:11.757Z,19.50
2023-04-17T10:14:43.161Z,19.30
2023-04-17T10:17:29.172Z,19.20
2023-04-17T10:19:56.715Z,19.30
2023-04-17T10:22:31.594Z,19.50
2023-04-17T10:25:02.254Z,19.50
2023-04-17T10:27:50.743Z,19.50
2023-04-17T10:30:18.293Z,19.50
2023-04-17T10:32:46.734Z,19.30
2023-04-17T10:35:34.015Z,19.30
2023-04-17T10:38:04.416Z,19.20
2023-04-17T10:40:34.004Z,19.50
2023-04-17T10:43:18.004Z,19.60
2023-04-17T10:45:48.351Z,19.70
2023-04-17T10:48:18.869Z,19.80
2023-04-17T10:50:47.435Z,19.80
2023-04-17T10:53:17.686Z,19.80
2023-04-17T10:55:48.068Z,20.00
2023-04-17T10:58:15.771Z,20.10
2023-04-17T11:00:46.267Z,20.30
2023-04-17T11:03:16.618Z,20.30
2023-04-17T11:05:47.019Z,20.40
2023-04-17T11:08:14.733Z,20.50
2023-04-17T11:10:42.196Z,20.60
2023-04-17T11:13:10.955Z,20.40
2023-04-17T11:15:38.259Z,20.20
2023-04-17T11:18:05.728Z,20.10
2023-04-17T11:20:36.121Z,20.00
2023-04-17T11:23:04.859Z,20.00
2023-04-17T11:25:34.999Z,20.20
2023-04-17T11:28:05.417Z,20.10
2023-04-17T11:30:35.165Z,20.00
2023-04-17T11:33:05.080Z,19.90
2023-04-17T11:35:34.596Z,19.90
2023-04-17T11:38:05.224Z,20.00
2023-04-17T11:40:33.807Z,20.10
2023-04-17T11:43:06.436Z,20.10
2023-04-17T11:45:34.716Z,19.70
2023-04-17T11:48:02.877Z,19.70
2023-04-17T11:50:31.488Z,19.70
2023-04-17T11:53:01.566Z,19.90
2023-04-17T11:55:31.744Z,20.10
2023-04-17T11:58:01.217Z,20.10
2023-04-17T12:00:30.584Z,20.20
2023-04-17T12:03:00.835Z,20.20
2023-04-17T12:05:30.344Z,20.30
2023-04-17T12:08:01.976Z,20.20
2023-04-17T12:10:32.388Z,20.10
2023-04-17T12:12:59.734Z,20.10
2023-04-17T12:15:27.218Z,20.10
2023-04-17T12:17:54.510Z,20.20
2023-04-17T12:20:21.888Z,20.00
2023-04-17T12:22:49.056Z,20.00
2023-04-17T12:25:16.512Z,20.00
2023-04-17T12:27:43.781Z,19.90
2023-04-17T12:30:11.857Z,19.90
2023-04-17T12:32:39.863Z,19.90
2023-04-17T12:35:07.518Z,19.90
2023-04-17T12:37:34.798Z,19.80
2023-04-17T12:40:02.246Z,19.80
2023-04-17T12:42:31.566Z,19.70
2023-04-17T12:45:03.851Z,19.60
2023-04-17T12:47:31.312Z,19.50
2023-04-17T12:49:58.559Z,19.50
2023-04-17T12:52:26.088Z,19.70
2023-04-17T12:54:58.428Z,19.80
2023-04-17T12:57:28.260Z,19.80
2023-04-17T12:59:55.749Z,19.60
2023-04-17T13:02:24.039Z,19.40
2023-04-17T13:04:53.416Z,19.50
2023-04-17T13:07:21.056Z,19.50
2023-04-17T13:09:48.277Z,19.30
2023-04-17T13:12:15.706Z,19.30
2023-04-17T13:14:43.134Z,19.00
2023-04-17T13:17:10.517Z,18.90
2023-04-17T13:19:40.166Z,18.80
2023-04-17T13:22:08.138Z,18.80
2023-04-17T13:24:36.994Z,18.80
2023-04-17T13:27:04.767Z,18.90
2023-04-17T13:29:32.146Z,19.00
2023-04-17T13:31:59.568Z,19.00
2023-04-17T13:34:26.920Z,19.10
2023-04-17T13:36:55.615Z,19.20
2023-04-17T13:39:22.951Z,19.20
2023-04-17T13:41:50.366Z,19.30
2023-04-17T13:44:18.734Z,19.30
2023-04-17T13:46:46.251Z,19.50
2023-04-17T13:49:13.877Z,19.60
2023-04-17T13:51:41.364Z,19.70
2023-04-17T13:54:10.252Z,19.80
2023-04-17T13:56:37.825Z,19.60
2023-04-17T13:59:05.987Z,19.50
2023-04-17T14:01:33.777Z,19.40
2023-04-17T14:04:01.193Z,19.30
2023-04-17T14:06:29.837Z,19.20
2023-04-17T14:08:58.585Z,19.10
2023-04-17T14:11:26.034Z,18.90
2023-04-17T14:13:53.428Z,18.80
2023-04-17T14:16:21.462Z,18.60
2023-04-17T14:18:50.308Z,18.60
2023-04-17T14:21:18.591Z,18.60
2023-04-17T14:23:46.069Z,18.70
2023-04-17T14:26:13.552Z,18.70
2023-04-17T14:28:41.156Z,18.70
2023-04-17T14:31:08.634Z,18.70
2023-04-17T14:33:35.966Z,18.60
2023-04-17T14:36:05.215Z,18.60
2023-04-17T14:38:34.213Z,18.60
2023-04-17T14:41:01.670Z,18.60
2023-04-17T14:43:28.956Z,18.60
2023-04-17T14:45:56.465Z,18.60
2023-04-17T14:48:24.236Z,18.60
2023-04-17T14:50:51.580Z,18.60
2023-04-17T14:53:21.247Z,18.60
2023-04-17T14:55:49.316Z,18.60
2023-04-17T14:58:16.765Z,18.50
2023-04-17T15:00:44.138Z,18.50
2023-04-17T15:03:11.690Z,18.50
2023-04-17T15:05:39.166Z,18.50
2023-04-17T15:08:06.415Z,18.50
2023-04-17T15:10:44.249Z,18.50
2023-04-17T15:13:18.075Z,18.60
2023-04-17T15:15:45.423Z,18.60
2023-04-17T15:18:12.705Z,18.70
2023-04-17T15:20:40.604Z,18.60
2023-04-17T15:23:08.018Z,18.60
2023-04-17T15:25:35.297Z,18.60
2023-04-17T15:28:02.720Z,18.50
2023-04-17T15:30:30.076Z,18.50
2023-04-17T15:32:57.462Z,18.40
2023-04-17T15:35:24.777Z,18.40
2023-04-17T15:37:52.158Z,18.50
2023-04-17T15:40:19.356Z,18.40
2023-04-17T15:42:46.637Z,18.30
2023-04-17T15:45:14.337Z,18.30
2023-04-17T15:47:41.783Z,18.30
2023-04-17T15:50:09.636Z,18.40
2023-04-17T15:52:36.980Z,18.30
2023-04-17T15:55:04.685Z,18.20
2023-04-17T15:57:32.129Z,18.10
2023-04-17T15:59:59.492Z,18.10
2023-04-17T16:02:26.996Z,18.10
2023-04-17T16:04:54.406Z,18.00
2023-04-17T16:07:22.358Z,17.90
2023-04-17T16:09:50.966Z,18.00
2023-04-17T16:12:18.470Z,18.00
2023-04-17T16:14:46.005Z,18.00
2023-04-17T16:17:13.357Z,17.90
2023-04-17T16:19:40.655Z,17.90
2023-04-17T16:22:08.197Z,17.90
2023-04-17T16:24:35.494Z,17.80
2023-04-17T16:27:03.161Z,17.90
2023-04-17T16:29:30.615Z,17.90
2023-04-17T16:31:58.277Z,17.90
2023-04-17T16:34:25.716Z,17.80
2023-04-17T16:36:53.315Z,17.80
2023-04-17T16:39:21.847Z,17.70
2023-04-17T16:41:49.213Z,17.70
2023-04-17T16:44:16.575Z,17.80
2023-04-17T16:47:02.901Z,17.70
2023-04-17T16:49:31.484Z,17.70
2023-04-17T16:51:59.811Z,17.70
2023-04-17T16:54:27.193Z,17.70
2023-04-17T16:56:54.795Z,17.60
2023-04-17T16:59:22.183Z,17.70
2023-04-17T17:01:50.042Z,17.60
2023-04-17T17:04:17.458Z,17.60
2023-04-17T17:06:44.862Z,17.60
2023-04-17T17:09:12.473Z,17.50
2023-04-17T17:11:40.465Z,17.50
2023-04-17T17:14:07.882Z,17.40
2023-04-17T17:16:35.382Z,17.40
2023-04-17T17:19:03.054Z,17.40
2023-04-17T17:21:31.193Z,17.30
2023-04-17T17:23:58.914Z,17.30
2023-04-17T17:26:26.405Z,17.30
2023-04-17T17:28:54.402Z,17.30
2023-04-17T17:31:21.778Z,17.20
2023-04-17T17:33:50.505Z,17.10
2023-04-17T17:36:18.048Z,17.10
2023-04-17T17:38:45.315Z,16.90
2023-04-17T17:41:12.786Z,16.70
2023-04-17T17:43:40.061Z,16.50
2023-04-17T17:46:07.476Z,16.50
2023-04-17T17:48:35.260Z,16.30
2023-04-17T17:51:02.726Z,16.20
2023-04-17T17:53:29.991Z,16.20
2023-04-17T17:55:57.723Z,16.20
2023-04-17T17:58:26.618Z,16.20
2023-04-17T18:00:53.998Z,16.10
2023-04-17T18:03:21.439Z,16.10
2023-04-17T18:05:49.094Z,16.00
2023-04-17T18:08:17.495Z,16.00
2023-04-17T18:10:44.957Z,15.90
2023-04-17T18:13:12.299Z,15.90
2023-04-17T18:15:39.788Z,15.90
2023-04-17T18:18:07.290Z,15.80
2023-04-17T18:20:37.402Z,15.70
2023-04-17T18:23:04.781Z,15.60
2023-04-17T18:25:32.257Z,15.40
2023-04-17T18:27:59.508Z,15.30
2023-04-17T18:30:26.870Z,15.30
2023-04-17T18:32:54.309Z,15.20
2023-04-17T18:35:21.728Z,15.10
2023-04-17T18:37:49.060Z,15.10
2023-04-17T18:40:16.618Z,15.10
2023-04-17T18:42:43.906Z,15.10
2023-04-17T18:45:13.757Z,15.10
2023-04-17T18:47:41.197Z,15.00
2023-04-17T18:50:09.229Z,15.00
2023-04-17T18:52:39.704Z,15.00
2023-04-17T18:55:08.439Z,14.90
2023-04-17T18:57:37.530Z,14.80
2023-04-17T19:00:06.210Z,14.80
2023-04-17T19:02:33.721Z,14.70
2023-04-17T19:05:01.198Z,14.60
2023-04-17T19:07:29.543Z,14.50
2023-04-17T19:09:56.978Z,14.40
2023-04-17T19:12:24.316Z,14.40
2023-04-17T19:14:52.085Z,14.30
2023-04-17T19:17:19.491Z,14.30
2023-04-17T19:19:46.782Z,14.30
2023-04-17T19:22:15.980Z,14.20
2023-04-17T19:24:43.668Z,14.20
2023-04-17T19:27:10.904Z,14.10
2023-04-17T19:29:38.243Z,14.00
2023-04-17T19:32:05.923Z,14.00
2023-04-17T19:34:33.354Z,13.90
2023-04-17T19:37:00.774Z,13.90
2023-04-17T19:39:28.654Z,13.80
2023-04-17T19:41:56.049Z,13.80
2023-04-17T19:44:23.497Z,13.80
2023-04-17T19:46:51.229Z,13.70
2023-04-17T19:49:18.705Z,13.70
2023-04-17T19:51:46.165Z,13.70
2023-04-17T19:54:13.767Z,13.70
2023-04-17T19:56:41.019Z,13.60
2023-04-17T19:59:12.692Z,13.60
2023-04-17T20:01:42.939Z,13.40
2023-04-17T20:04:11.401Z,13.30
2023-04-17T20:06:39.866Z,13.30
2023-04-17T20:09:07.283Z,13.20
2023-04-17T20:11:34.944Z,13.10
2023-04-17T20:14:03.781Z,13.10
2023-04-17T20:16:32.335Z,13.00
2023-04-17T20:18:59.624Z,12.90
2023-04-17T20:21:27.018Z,12.80
2023-04-17T20:23:55.531Z,12.80
2023-04-17T20:26:22.877Z,12.80
2023-04-17T20:28:50.217Z,12.90
2023-04-17T20:31:17.700Z,13.00
2023-04-17T20:33:45.092Z,13.00
2023-04-17T20:36:13.159Z,13.00
2023-04-17T20:38:40.767Z,12.80
2023-04-17T20:41:08.146Z,12.70
2023-04-17T20:43:35.585Z,12.70
2023-04-17T20:46:03.290Z,12.60
2023-04-17T20:48:30.848Z,12.70
2023-04-17T20:51:01.224Z,12.60
2023-04-17T20:53:28.544Z,12.60
2023-04-17T20:55:57.800Z,12.50
2023-04-17T20:58:25.470Z,12.40
2023-04-17T21:01:00.660Z,12.30
2023-04-17T21:03:31.208Z,12.30
2023-04-17T21:05:59.176Z,12.20
2023-04-17T21:08:26.885Z,12.20
2023-04-17T21:10:54.206Z,12.00
2023-04-17T21:13:23.107Z,12.10
2023-04-17T21:15:50.512Z,12.00
2023-04-17T21:18:18.045Z,11.90
2023-04-17T21:20:46.103Z,11.80
2023-04-17T21:23:14.062Z,11.70
2023-04-17T21:25:41.318Z,11.70
2023-04-17T21:28:08.805Z,11.70
2023-04-17T21:30:37.364Z,11.80
2023-04-17T21:33:04.836Z,11.80
2023-04-17T21:35:32.218Z,11.80
2023-04-17T21:37:59.552Z,11.90
2023-04-17T21:40:31.010Z,11.90
2023-04-17T21:43:01.543Z,12.00
2023-04-17T21:45:29.008Z,12.00
2023-04-17T21:47:56.598Z,12.00
2023-04-17T21:50:23.957Z,11.90
2023-04-17T21:52:51.388Z,11.90
2023-04-17T21:55:18.695Z,11.80
2023-04-17T21:57:46.222Z,11.70
2023-04-17T22:00:14.501Z,11.70
2023-04-17T22:02:41.999Z,11.70
2023-04-17T22:05:09.739Z,11.70
2023-04-17T22:07:47.245Z,11.80
2023-04-17T22:10:21.657Z,11.80
2023-04-17T22:12:48.928Z,11.90
2023-04-17T22:15:16.348Z,11.90
2023-04-17T22:17:43.736Z,12.00
2023-04-17T22:20:14.151Z,11.90
2023-04-17T22:22:43.062Z,11.90
2023-04-17T22:25:10.507Z,11.90
2023-04-17T22:27:37.837Z,11.90
2023-04-17T22:30:06.378Z,11.90
2023-04-17T22:32:34.884Z,11.90
2023-04-17T22:35:02.905Z,11.90
2023-04-17T22:37:30.385Z,11.90
2023-04-17T22:39:57.718Z,11.80
2023-04-17T22:42:25.457Z,11.80
2023-04-17T22:44:53.089Z,11.80
2023-04-17T22:47:22.131Z,11.80
2023-04-17T22:49:49.522Z,11.80
2023-04-17T22:52:16.886Z,11.80
2023-04-17T22:54:44.257Z,11.80
2023-04-17T22:57:11.842Z,11.80
2023-04-17T22:59:40.387Z,11.80
2023-04-17T23:02:08.284Z,11.80
2023-04-17T23:04:35.756Z,11.80
2023-04-17T23:07:03.309Z,11.80
2023-04-17T23:09:30.870Z,11.80
2023-04-17T23:11:58.232Z,11.80
2023-04-17T23:14:26.498Z,11.80
2023-04-17T23:16:54.031Z,11.70
2023-04-17T23:19:22.917Z,11.70
2023-04-17T23:21:50.500Z,11.60
2023-04-17T23:24:17.838Z,11.60
2023-04-17T23:26:45.255Z,11.50
2023-04-17T23:29:12.501Z,11.50
2023-04-17T23:31:40.143Z,11.50
2023-04-17T23:34:07.468Z,11.40
2023-04-17T23:36:34.861Z,11.40
2023-04-17T23:39:02.244Z,11.40
2023-04-17T23:41:29.769Z,11.30
2023-04-17T23:43:57.325Z,11.40
2023-04-17T23:46:24.902Z,11.40
2023-04-17T23:48:52.285Z,11.30
2023-04-17T23:51:19.686Z,11.20
2023-04-17T23:53:47.069Z,11.10
2023-04-17T23:56:14.496Z,11.10
2023-04-17T23:58:41.773Z,11.10
